sensor_id;sensor_type;location;lat;lon;timestamp;P1;durP1;ratioP1;P2;durP2;ratioP2
27428;SDS011;14881;48.092;11.574;2023-04-20T00:00:44;29.77;;;19.20;;
27428;SDS011;14881;48.092;11.574;2023-04-20T00:03:12;26.00;;;17.38;;
27428;SDS011;14881;48.092;11.574;2023-04-20T00:05:41;26.40;;;17.60;;
27428;SDS011;14881;48.092;11.574;2023-04-20T00:08:10;36.65;;;23.20;;
27428;SDS011;14881;48.092;11.574;2023-04-20T00:10:37;34.95;;;23.63;;
27428;SDS011;14881;48.092;11.574;2023-04-20T00:13:05;43.53;;;27.27;;
27428;SDS011;14881;48.092;11.574;2023-04-20T00:15:33;41.05;;;25.25;;
27428;SDS011;14881;48.092;11.574;2023-04-20T00:18:07;38.97;;;23.70;;
27428;SDS011;14881;48.092;11.574;2023-04-20T00:20:34;36.72;;;23.33;;
27428;SDS011;14881;48.092;11.574;2023-04-20T00:23:02;36.90;;;24.10;;
27428;SDS011;14881;48.092;11.574;2023-04-20T00:25:32;35.17;;;23.35;;
27428;SDS011;14881;48.092;11.574;2023-04-20T00:27:59;32.30;;;21.92;;
27428;SDS011;14881;48.092;11.574;2023-04-20T00:30:27;40.45;;;23.88;;
27428;SDS011;14881;48.092;11.574;2023-04-20T00:32:55;41.63;;;25.08;;
27428;SDS011;14881;48.092;11.574;2023-04-20T00:35:23;42.65;;;26.92;;
27428;SDS011;14881;48.092;11.574;2023-04-20T00:37:50;37.20;;;23.92;;
27428;SDS011;14881;48.092;11.574;2023-04-20T00:40:18;37.83;;;24.48;;
27428;SDS011;14881;48.092;11.574;2023-04-20T00:42:47;44.17;;;26.42;;
27428;SDS011;14881;48.092;11.574;2023-04-20T00:45:15;43.35;;;27.10;;
27428;SDS011;14881;48.092;11.574;2023-04-20T00:47:43;43.20;;;27.50;;
27428;SDS011;14881;48.092;11.574;2023-04-20T00:50:11;43.83;;;27.88;;
27428;SDS011;14881;48.092;11.574;2023-04-20T00:52:39;46.05;;;28.42;;
27428;SDS011;14881;48.092;11.574;2023-04-20T00:55:07;42.15;;;27.58;;
27428;SDS011;14881;48.092;11.574;2023-04-20T00:57:36;41.47;;;25.48;;
27428;SDS011;14881;48.092;11.574;2023-04-20T01:00:06;37.38;;;24.63;;
27428;SDS011;14881;48.092;11.574;2023-04-20T01:02:35;37.90;;;24.52;;
27428;SDS011;14881;48.092;11.574;2023-04-20T01:05:03;37.08;;;25.02;;
27428;SDS011;14881;48.092;11.574;2023-04-20T01:07:31;43.45;;;27.45;;
27428;SDS011;14881;48.092;11.574;2023-04-20T01:09:59;38.67;;;24.92;;
27428;SDS011;14881;48.092;11.574;2023-04-20T01:12:27;39.08;;;24.92;;
27428;SDS011;14881;48.092;11.574;2023-04-20T01:14:55;35.42;;;22.92;;
27428;SDS011;14881;48.092;11.574;2023-04-20T01:17:24;33.97;;;22.90;;
27428;SDS011;14881;48.092;11.574;2023-04-20T01:19:52;31.85;;;22.52;;
27428;SDS011;14881;48.092;11.574;2023-04-20T01:22:21;33.88;;;22.38;;
27428;SDS011;14881;48.092;11.574;2023-04-20T01:24:49;33.97;;;21.35;;
27428;SDS011;14881;48.092;11.574;2023-04-20T01:27:16;35.70;;;22.02;;
27428;SDS011;14881;48.092;11.574;2023-04-20T01:29:44;33.08;;;20.52;;
27428;SDS011;14881;48.092;11.574;2023-04-20T01:32:12;34.95;;;21.30;;
27428;SDS011;14881;48.092;11.574;2023-04-20T01:34:40;35.83;;;21.08;;
27428;SDS011;14881;48.092;11.574;2023-04-20T01:37:07;29.08;;;19.42;;
27428;SDS011;14881;48.092;11.574;2023-04-20T01:39:37;25.95;;;17.02;;
27428;SDS011;14881;48.092;11.574;2023-04-20T01:42:06;22.00;;;15.60;;
27428;SDS011;14881;48.092;11.574;2023-04-20T01:44:34;23.77;;;15.65;;
27428;SDS011;14881;48.092;11.574;2023-04-20T01:47:02;25.55;;;16.90;;
27428;SDS011;14881;48.092;11.574;2023-04-20T01:49:30;23.30;;;16.08;;
27428;SDS011;14881;48.092;11.574;2023-04-20T01:51:57;22.45;;;15.52;;
27428;SDS011;14881;48.092;11.574;2023-04-20T01:54:25;23.13;;;15.55;;
27428;SDS011;14881;48.092;11.574;2023-04-20T01:56:54;21.65;;;14.57;;
27428;SDS011;14881;48.092;11.574;2023-04-20T01:59:22;20.38;;;14.18;;
27428;SDS011;14881;48.092;11.574;2023-04-20T02:01:50;21.25;;;13.50;;
27428;SDS011;14881;48.092;11.574;2023-04-20T02:04:18;18.40;;;13.23;;
27428;SDS011;14881;48.092;11.574;2023-04-20T02:06:46;19.77;;;13.27;;
27428;SDS011;14881;48.092;11.574;2023-04-20T02:09:14;17.38;;;11.70;;
27428;SDS011;14881;48.092;11.574;2023-04-20T02:11:43;14.45;;;11.18;;
27428;SDS011;14881;48.092;11.574;2023-04-20T02:14:12;15.50;;;11.43;;
27428;SDS011;14881;48.092;11.574;2023-04-20T02:16:40;13.38;;;10.43;;
27428;SDS011;14881;48.092;11.574;2023-04-20T02:19:07;15.63;;;10.50;;
27428;SDS011;14881;48.092;11.574;2023-04-20T02:21:36;14.85;;;11.00;;
27428;SDS011;14881;48.092;11.574;2023-04-20T02:24:04;14.63;;;10.48;;
27428;SDS011;14881;48.092;11.574;2023-04-20T02:26:32;14.77;;;10.30;;
27428;SDS011;14881;48.092;11.574;2023-04-20T02:28:59;15.80;;;10.60;;
27428;SDS011;14881;48.092;11.574;2023-04-20T02:31:28;14.23;;;10.95;;
27428;SDS011;14881;48.092;11.574;2023-04-20T02:33:56;17.40;;;10.88;;
27428;SDS011;14881;48.092;11.574;2023-04-20T02:36:24;16.02;;;11.48;;
27428;SDS011;14881;48.092;11.574;2023-04-20T02:38:52;16.40;;;11.20;;
27428;SDS011;14881;48.092;11.574;2023-04-20T02:41:19;14.32;;;10.93;;
27428;SDS011;14881;48.092;11.574;2023-04-20T02:43:47;15.55;;;11.70;;
27428;SDS011;14881;48.092;11.574;2023-04-20T02:46:16;14.35;;;11.48;;
27428;SDS011;14881;48.092;11.574;2023-04-20T02:48:45;16.98;;;11.45;;
27428;SDS011;14881;48.092;11.574;2023-04-20T02:51:13;20.85;;;12.40;;
27428;SDS011;14881;48.092;11.574;2023-04-20T02:53:40;15.98;;;11.30;;
27428;SDS011;14881;48.092;11.574;2023-04-20T02:56:08;17.05;;;11.27;;
27428;SDS011;14881;48.092;11.574;2023-04-20T02:58:36;17.48;;;12.80;;
27428;SDS011;14881;48.092;11.574;2023-04-20T03:01:04;19.05;;;12.60;;
27428;SDS011;14881;48.092;11.574;2023-04-20T03:03:32;16.67;;;11.88;;
27428;SDS011;14881;48.092;11.574;2023-04-20T03:06:11;15.40;;;11.68;;
27428;SDS011;14881;48.092;11.574;2023-04-20T03:08:38;20.50;;;12.45;;
27428;SDS011;14881;48.092;11.574;2023-04-20T03:11:06;18.20;;;12.88;;
27428;SDS011;14881;48.092;11.574;2023-04-20T03:13:34;17.58;;;12.55;;
27428;SDS011;14881;48.092;11.574;2023-04-20T03:16:01;18.90;;;13.23;;
27428;SDS011;14881;48.092;11.574;2023-04-20T03:18:30;21.08;;;13.25;;
27428;SDS011;14881;48.092;11.574;2023-04-20T03:20:57;17.77;;;13.13;;
27428;SDS011;14881;48.092;11.574;2023-04-20T03:23:27;21.58;;;14.10;;
27428;SDS011;14881;48.092;11.574;2023-04-20T03:25:54;23.80;;;14.40;;
27428;SDS011;14881;48.092;11.574;2023-04-20T03:28:22;17.20;;;12.45;;
27428;SDS011;14881;48.092;11.574;2023-04-20T03:30:50;17.92;;;12.48;;
27428;SDS011;14881;48.092;11.574;2023-04-20T03:33:18;19.23;;;12.63;;
27428;SDS011;14881;48.092;11.574;2023-04-20T03:35:45;15.38;;;12.15;;
27428;SDS011;14881;48.092;11.574;2023-04-20T03:38:13;16.55;;;12.73;;
27428;SDS011;14881;48.092;11.574;2023-04-20T03:40:42;18.83;;;12.38;;
27428;SDS011;14881;48.092;11.574;2023-04-20T03:43:10;19.77;;;12.88;;
27428;SDS011;14881;48.092;11.574;2023-04-20T03:45:37;19.77;;;13.25;;
27428;SDS011;14881;48.092;11.574;2023-04-20T03:48:05;18.90;;;12.93;;
27428;SDS011;14881;48.092;11.574;2023-04-20T03:50:33;19.70;;;12.48;;
27428;SDS011;14881;48.092;11.574;2023-04-20T03:53:01;20.35;;;13.30;;
27428;SDS011;14881;48.092;11.574;2023-04-20T03:55:28;18.25;;;13.70;;
27428;SDS011;14881;48.092;11.574;2023-04-20T03:57:57;19.77;;;13.20;;
27428;SDS011;14881;48.092;11.574;2023-04-20T04:00:25;21.88;;;14.10;;
27428;SDS011;14881;48.092;11.574;2023-04-20T04:02:53;20.52;;;13.63;;
27428;SDS011;14881;48.092;11.574;2023-04-20T04:05:21;23.60;;;14.60;;
27428;SDS011;14881;48.092;11.574;2023-04-20T04:07:49;22.38;;;15.07;;
27428;SDS011;14881;48.092;11.574;2023-04-20T04:10:17;25.50;;;15.57;;
27428;SDS011;14881;48.092;11.574;2023-04-20T04:12:45;25.50;;;16.63;;
27428;SDS011;14881;48.092;11.574;2023-04-20T04:15:14;21.00;;;14.93;;
27428;SDS011;14881;48.092;11.574;2023-04-20T04:17:44;24.17;;;15.60;;
27428;SDS011;14881;48.092;11.574;2023-04-20T04:20:12;23.80;;;15.55;;
27428;SDS011;14881;48.092;11.574;2023-04-20T04:22:40;20.13;;;13.98;;
27428;SDS011;14881;48.092;11.574;2023-04-20T04:25:08;23.08;;;15.57;;
27428;SDS011;14881;48.092;11.574;2023-04-20T04:27:37;20.70;;;14.60;;
27428;SDS011;14881;48.092;11.574;2023-04-20T04:30:05;19.88;;;12.90;;
27428;SDS011;14881;48.092;11.574;2023-04-20T04:32:35;17.85;;;12.90;;
27428;SDS011;14881;48.092;11.574;2023-04-20T04:35:03;18.23;;;14.25;;
27428;SDS011;14881;48.092;11.574;2023-04-20T04:37:31;19.73;;;13.13;;
27428;SDS011;14881;48.092;11.574;2023-04-20T04:39:59;17.67;;;12.60;;
27428;SDS011;14881;48.092;11.574;2023-04-20T04:42:29;16.98;;;12.40;;
27428;SDS011;14881;48.092;11.574;2023-04-20T04:44:57;17.55;;;12.73;;
27428;SDS011;14881;48.092;11.574;2023-04-20T04:47:27;19.35;;;12.88;;
27428;SDS011;14881;48.092;11.574;2023-04-20T04:49:57;15.90;;;11.50;;
27428;SDS011;14881;48.092;11.574;2023-04-20T04:52:27;17.33;;;12.45;;
27428;SDS011;14881;48.092;11.574;2023-04-20T04:54:54;17.55;;;12.57;;
27428;SDS011;14881;48.092;11.574;2023-04-20T04:57:22;16.70;;;12.02;;
27428;SDS011;14881;48.092;11.574;2023-04-20T04:59:50;17.60;;;12.93;;
27428;SDS011;14881;48.092;11.574;2023-04-20T05:02:18;19.05;;;12.65;;
27428;SDS011;14881;48.092;11.574;2023-04-20T05:04:46;14.95;;;11.68;;
27428;SDS011;14881;48.092;11.574;2023-04-20T05:07:15;15.82;;;12.45;;
27428;SDS011;14881;48.092;11.574;2023-04-20T05:09:43;15.18;;;11.07;;
27428;SDS011;14881;48.092;11.574;2023-04-20T05:12:11;13.52;;;10.60;;
27428;SDS011;14881;48.092;11.574;2023-04-20T05:14:38;12.90;;;10.57;;
27428;SDS011;14881;48.092;11.574;2023-04-20T05:17:06;14.63;;;10.60;;
27428;SDS011;14881;48.092;11.574;2023-04-20T05:19:34;16.95;;;10.65;;
27428;SDS011;14881;48.092;11.574;2023-04-20T05:22:02;13.52;;;10.45;;
27428;SDS011;14881;48.092;11.574;2023-04-20T05:24:32;13.95;;;11.05;;
27428;SDS011;14881;48.092;11.574;2023-04-20T05:27:00;13.70;;;11.10;;
27428;SDS011;14881;48.092;11.574;2023-04-20T05:29:29;14.35;;;11.15;;
27428;SDS011;14881;48.092;11.574;2023-04-20T05:31:57;13.18;;;10.20;;
27428;SDS011;14881;48.092;11.574;2023-04-20T05:34:25;16.05;;;10.95;;
27428;SDS011;14881;48.092;11.574;2023-04-20T05:36:53;12.68;;;9.05;;
27428;SDS011;14881;48.092;11.574;2023-04-20T05:39:22;11.90;;;9.50;;
27428;SDS011;14881;48.092;11.574;2023-04-20T05:41:51;12.50;;;9.23;;
27428;SDS011;14881;48.092;11.574;2023-04-20T05:44:18;10.07;;;8.63;;
27428;SDS011;14881;48.092;11.574;2023-04-20T05:46:46;12.40;;;9.23;;
27428;SDS011;14881;48.092;11.574;2023-04-20T05:49:15;11.52;;;9.48;;
27428;SDS011;14881;48.092;11.574;2023-04-20T05:51:43;12.77;;;9.85;;
27428;SDS011;14881;48.092;11.574;2023-04-20T05:54:11;13.95;;;10.05;;
27428;SDS011;14881;48.092;11.574;2023-04-20T05:56:39;12.25;;;9.70;;
27428;SDS011;14881;48.092;11.574;2023-04-20T05:59:08;13.90;;;10.90;;
27428;SDS011;14881;48.092;11.574;2023-04-20T06:01:36;14.13;;;11.00;;
27428;SDS011;14881;48.092;11.574;2023-04-20T06:04:04;15.98;;;10.57;;
27428;SDS011;14881;48.092;11.574;2023-04-20T06:06:32;13.38;;;10.77;;
27428;SDS011;14881;48.092;11.574;2023-04-20T06:09:00;13.25;;;9.60;;
27428;SDS011;14881;48.092;11.574;2023-04-20T06:11:29;9.73;;;8.30;;
27428;SDS011;14881;48.092;11.574;2023-04-20T06:13:56;12.35;;;9.27;;
27428;SDS011;14881;48.092;11.574;2023-04-20T06:16:26;10.95;;;8.57;;
27428;SDS011;14881;48.092;11.574;2023-04-20T06:18:53;10.88;;;8.45;;
27428;SDS011;14881;48.092;11.574;2023-04-20T06:21:22;13.18;;;9.45;;
27428;SDS011;14881;48.092;11.574;2023-04-20T06:23:52;11.32;;;8.50;;
27428;SDS011;14881;48.092;11.574;2023-04-20T06:26:20;13.75;;;10.35;;
27428;SDS011;14881;48.092;11.574;2023-04-20T06:28:48;12.45;;;9.75;;
27428;SDS011;14881;48.092;11.574;2023-04-20T06:31:18;12.80;;;10.55;;
27428;SDS011;14881;48.092;11.574;2023-04-20T06:33:47;12.82;;;9.35;;
27428;SDS011;14881;48.092;11.574;2023-04-20T06:36:15;12.77;;;9.18;;
27428;SDS011;14881;48.092;11.574;2023-04-20T06:38:43;12.70;;;9.57;;
27428;SDS011;14881;48.092;11.574;2023-04-20T06:41:11;10.43;;;8.45;;
27428;SDS011;14881;48.092;11.574;2023-04-20T06:43:38;11.85;;;9.40;;
27428;SDS011;14881;48.092;11.574;2023-04-20T06:46:07;12.73;;;9.70;;
27428;SDS011;14881;48.092;11.574;2023-04-20T06:48:35;11.75;;;9.88;;
27428;SDS011;14881;48.092;11.574;2023-04-20T06:51:04;11.45;;;9.80;;
27428;SDS011;14881;48.092;11.574;2023-04-20T06:53:32;14.70;;;9.60;;
27428;SDS011;14881;48.092;11.574;2023-04-20T06:56:00;12.68;;;9.55;;
27428;SDS011;14881;48.092;11.574;2023-04-20T06:58:28;8.85;;;7.38;;
27428;SDS011;14881;48.092;11.574;2023-04-20T07:00:55;10.52;;;8.10;;
27428;SDS011;14881;48.092;11.574;2023-04-20T07:03:23;9.07;;;7.47;;
27428;SDS011;14881;48.092;11.574;2023-04-20T07:05:51;8.80;;;7.88;;
27428;SDS011;14881;48.092;11.574;2023-04-20T07:08:20;9.43;;;8.05;;
27428;SDS011;14881;48.092;11.574;2023-04-20T07:10:48;8.85;;;7.95;;
27428;SDS011;14881;48.092;11.574;2023-04-20T07:13:16;82.68;;;69.50;;
27428;SDS011;14881;48.092;11.574;2023-04-20T07:15:43;32.53;;;23.75;;
27428;SDS011;14881;48.092;11.574;2023-04-20T07:18:12;15.48;;;12.45;;
27428;SDS011;14881;48.092;11.574;2023-04-20T07:20:39;13.88;;;11.85;;
27428;SDS011;14881;48.092;11.574;2023-04-20T07:23:07;13.75;;;12.25;;
27428;SDS011;14881;48.092;11.574;2023-04-20T07:25:36;14.90;;;12.30;;
27428;SDS011;14881;48.092;11.574;2023-04-20T07:28:04;14.02;;;11.65;;
27428;SDS011;14881;48.092;11.574;2023-04-20T07:30:32;12.82;;;11.25;;
27428;SDS011;14881;48.092;11.574;2023-04-20T07:33:00;11.68;;;10.48;;
27428;SDS011;14881;48.092;11.574;2023-04-20T07:35:28;11.05;;;9.68;;
27428;SDS011;14881;48.092;11.574;2023-04-20T07:37:55;11.32;;;9.88;;
27428;SDS011;14881;48.092;11.574;2023-04-20T07:40:23;13.95;;;10.27;;
27428;SDS011;14881;48.092;11.574;2023-04-20T07:42:52;13.60;;;11.63;;
27428;SDS011;14881;48.092;11.574;2023-04-20T07:45:20;18.40;;;13.48;;
27428;SDS011;14881;48.092;11.574;2023-04-20T07:47:49;13.15;;;10.57;;
27428;SDS011;14881;48.092;11.574;2023-04-20T07:50:19;13.25;;;10.95;;
27428;SDS011;14881;48.092;11.574;2023-04-20T07:52:47;13.40;;;10.68;;
27428;SDS011;14881;48.092;11.574;2023-04-20T07:55:15;13.23;;;10.63;;
27428;SDS011;14881;48.092;11.574;2023-04-20T07:58:02;13.13;;;10.30;;
27428;SDS011;14881;48.092;11.574;2023-04-20T08:00:29;12.85;;;10.90;;
27428;SDS011;14881;48.092;11.574;2023-04-20T08:02:57;12.00;;;10.65;;
27428;SDS011;14881;48.092;11.574;2023-04-20T08:05:25;13.93;;;11.50;;
27428;SDS011;14881;48.092;11.574;2023-04-20T08:07:53;14.98;;;12.70;;
27428;SDS011;14881;48.092;11.574;2023-04-20T08:10:21;14.70;;;12.43;;
27428;SDS011;14881;48.092;11.574;2023-04-20T08:12:49;16.85;;;14.30;;
27428;SDS011;14881;48.092;11.574;2023-04-20T08:15:20;20.23;;;13.95;;
27428;SDS011;14881;48.092;11.574;2023-04-20T08:17:47;18.70;;;14.43;;
27428;SDS011;14881;48.092;11.574;2023-04-20T08:20:15;17.63;;;13.35;;
27428;SDS011;14881;48.092;11.574;2023-04-20T08:22:43;16.52;;;12.82;;
27428;SDS011;14881;48.092;11.574;2023-04-20T08:25:11;14.15;;;11.48;;
27428;SDS011;14881;48.092;11.574;2023-04-20T08:27:39;12.00;;;10.73;;
27428;SDS011;14881;48.092;11.574;2023-04-20T08:30:07;11.95;;;10.57;;
27428;SDS011;14881;48.092;11.574;2023-04-20T08:32:36;13.18;;;10.55;;
27428;SDS011;14881;48.092;11.574;2023-04-20T08:35:05;13.25;;;11.55;;
27428;SDS011;14881;48.092;11.574;2023-04-20T08:37:33;16.38;;;12.77;;
27428;SDS011;14881;48.092;11.574;2023-04-20T08:40:02;16.58;;;13.35;;
27428;SDS011;14881;48.092;11.574;2023-04-20T08:42:31;20.85;;;14.93;;
27428;SDS011;14881;48.092;11.574;2023-04-20T08:44:59;20.17;;;15.65;;
27428;SDS011;14881;48.092;11.574;2023-04-20T08:47:27;20.02;;;15.57;;
27428;SDS011;14881;48.092;11.574;2023-04-20T08:49:56;19.17;;;15.82;;
27428;SDS011;14881;48.092;11.574;2023-04-20T08:52:29;19.55;;;15.98;;
27428;SDS011;14881;48.092;11.574;2023-04-20T08:54:58;16.83;;;15.02;;
27428;SDS011;14881;48.092;11.574;2023-04-20T08:57:25;20.10;;;15.60;;
27428;SDS011;14881;48.092;11.574;2023-04-20T08:59:53;18.15;;;14.10;;
27428;SDS011;14881;48.092;11.574;2023-04-20T09:02:23;16.67;;;14.45;;
27428;SDS011;14881;48.092;11.574;2023-04-20T09:05:00;14.90;;;12.93;;
27428;SDS011;14881;48.092;11.574;2023-04-20T09:07:30;18.20;;;15.50;;
27428;SDS011;14881;48.092;11.574;2023-04-20T09:09:59;16.42;;;13.30;;
27428;SDS011;14881;48.092;11.574;2023-04-20T09:12:27;16.13;;;14.00;;
27428;SDS011;14881;48.092;11.574;2023-04-20T09:14:55;16.50;;;13.73;;
27428;SDS011;14881;48.092;11.574;2023-04-20T09:17:32;16.58;;;13.90;;
27428;SDS011;14881;48.092;11.574;2023-04-20T09:20:03;15.65;;;13.68;;
27428;SDS011;14881;48.092;11.574;2023-04-20T09:22:32;20.30;;;16.10;;
27428;SDS011;14881;48.092;11.574;2023-04-20T09:25:11;19.02;;;15.68;;
27428;SDS011;14881;48.092;11.574;2023-04-20T09:27:39;17.88;;;14.07;;
27428;SDS011;14881;48.092;11.574;2023-04-20T09:30:07;17.35;;;15.18;;
27428;SDS011;14881;48.092;11.574;2023-04-20T09:32:36;15.75;;;13.40;;
27428;SDS011;14881;48.092;11.574;2023-04-20T09:35:05;16.45;;;14.57;;
27428;SDS011;14881;48.092;11.574;2023-04-20T09:37:34;16.40;;;13.65;;
27428;SDS011;14881;48.092;11.574;2023-04-20T09:40:01;17.48;;;14.57;;
27428;SDS011;14881;48.092;11.574;2023-04-20T09:42:31;15.38;;;13.48;;
27428;SDS011;14881;48.092;11.574;2023-04-20T09:45:03;15.77;;;13.38;;
27428;SDS011;14881;48.092;11.574;2023-04-20T09:47:32;16.40;;;13.23;;
27428;SDS011;14881;48.092;11.574;2023-04-20T09:50:02;16.10;;;13.15;;
27428;SDS011;14881;48.092;11.574;2023-04-20T09:52:46;14.93;;;12.93;;
27428;SDS011;14881;48.092;11.574;2023-04-20T09:55:15;13.43;;;11.75;;
27428;SDS011;14881;48.092;11.574;2023-04-20T09:57:43;13.10;;;11.65;;
27428;SDS011;14881;48.092;11.574;2023-04-20T10:00:12;14.95;;;12.20;;
27428;SDS011;14881;48.092;11.574;2023-04-20T10:02:40;14.90;;;11.95;;
27428;SDS011;14881;48.092;11.574;2023-04-20T10:05:13;14.55;;;12.25;;
27428;SDS011;14881;48.092;11.574;2023-04-20T10:07:42;13.10;;;11.43;;
27428;SDS011;14881;48.092;11.574;2023-04-20T10:10:12;12.70;;;11.27;;
27428;SDS011;14881;48.092;11.574;2023-04-20T10:12:48;14.15;;;11.73;;
27428;SDS011;14881;48.092;11.574;2023-04-20T10:15:16;12.25;;;10.95;;
27428;SDS011;14881;48.092;11.574;2023-04-20T10:17:44;15.00;;;11.80;;
27428;SDS011;14881;48.092;11.574;2023-04-20T10:20:19;12.63;;;11.13;;
27428;SDS011;14881;48.092;11.574;2023-04-20T10:22:48;14.75;;;12.55;;
27428;SDS011;14881;48.092;11.574;2023-04-20T10:25:21;13.63;;;11.52;;
27428;SDS011;14881;48.092;11.574;2023-04-20T10:27:53;14.27;;;11.32;;
27428;SDS011;14881;48.092;11.574;2023-04-20T10:30:22;12.43;;;11.13;;
27428;SDS011;14881;48.092;11.574;2023-04-20T10:33:01;13.07;;;11.27;;
27428;SDS011;14881;48.092;11.574;2023-04-20T10:35:39;12.10;;;10.65;;
27428;SDS011;14881;48.092;11.574;2023-04-20T10:38:11;13.23;;;10.82;;
27428;SDS011;14881;48.092;11.574;2023-04-20T10:40:40;14.32;;;10.07;;
27428;SDS011;14881;48.092;11.574;2023-04-20T10:43:17;11.88;;;10.68;;
27428;SDS011;14881;48.092;11.574;2023-04-20T10:45:46;12.38;;;11.07;;
27428;SDS011;14881;48.092;11.574;2023-04-20T10:48:15;12.00;;;10.80;;
27428;SDS011;14881;48.092;11.574;2023-04-20T10:50:43;10.88;;;9.73;;
27428;SDS011;14881;48.092;11.574;2023-04-20T10:53:21;11.38;;;10.18;;
27428;SDS011;14881;48.092;11.574;2023-04-20T10:55:58;11.15;;;9.70;;
27428;SDS011;14881;48.092;11.574;2023-04-20T10:58:26;11.70;;;10.52;;
27428;SDS011;14881;48.092;11.574;2023-04-20T11:00:58;11.95;;;10.75;;
27428;SDS011;14881;48.092;11.574;2023-04-20T11:03:26;11.85;;;10.65;;
27428;SDS011;14881;48.092;11.574;2023-04-20T11:05:55;13.20;;;11.40;;
27428;SDS011;14881;48.092;11.574;2023-04-20T11:08:36;12.80;;;11.50;;
27428;SDS011;14881;48.092;11.574;2023-04-20T11:11:15;12.98;;;11.18;;
27428;SDS011;14881;48.092;11.574;2023-04-20T11:13:44;12.70;;;11.45;;
27428;SDS011;14881;48.092;11.574;2023-04-20T11:16:12;13.57;;;12.18;;
27428;SDS011;14881;48.092;11.574;2023-04-20T11:21:08;15.35;;;13.23;;
27428;SDS011;14881;48.092;11.574;2023-04-20T11:23:36;14.07;;;12.60;;
27428;SDS011;14881;48.092;11.574;2023-04-20T11:26:06;14.30;;;12.85;;
27428;SDS011;14881;48.092;11.574;2023-04-20T11:28:33;14.13;;;12.68;;
27428;SDS011;14881;48.092;11.574;2023-04-20T11:31:02;13.05;;;11.65;;
27428;SDS011;14881;48.092;11.574;2023-04-20T11:33:30;14.23;;;12.73;;
27428;SDS011;14881;48.092;11.574;2023-04-20T11:35:59;14.00;;;12.52;;
27428;SDS011;14881;48.092;11.574;2023-04-20T11:38:28;14.32;;;12.82;;
27428;SDS011;14881;48.092;11.574;2023-04-20T11:40:57;13.15;;;11.77;;
27428;SDS011;14881;48.092;11.574;2023-04-20T11:43:30;13.38;;;12.07;;
27428;SDS011;14881;48.092;11.574;2023-04-20T11:45:58;14.18;;;12.68;;
27428;SDS011;14881;48.092;11.574;2023-04-20T11:48:28;13.70;;;12.27;;
27428;SDS011;14881;48.092;11.574;2023-04-20T11:50:56;12.07;;;10.88;;
27428;SDS011;14881;48.092;11.574;2023-04-20T11:53:25;11.82;;;10.35;;
27428;SDS011;14881;48.092;11.574;2023-04-20T11:55:53;11.65;;;10.48;;
27428;SDS011;14881;48.092;11.574;2023-04-20T11:58:21;11.32;;;10.13;;
27428;SDS011;14881;48.092;11.574;2023-04-20T12:00:50;10.80;;;9.75;;
27428;SDS011;14881;48.092;11.574;2023-04-20T12:03:17;12.20;;;9.32;;
27428;SDS011;14881;48.092;11.574;2023-04-20T12:05:46;10.43;;;9.43;;
27428;SDS011;14881;48.092;11.574;2023-04-20T12:08:14;9.23;;;8.32;;
27428;SDS011;14881;48.092;11.574;2023-04-20T12:10:42;9.15;;;8.25;;
27428;SDS011;14881;48.092;11.574;2023-04-20T12:13:10;11.65;;;8.32;;
27428;SDS011;14881;48.092;11.574;2023-04-20T12:15:38;9.60;;;8.45;;
27428;SDS011;14881;48.092;11.574;2023-04-20T12:18:07;9.50;;;8.60;;
27428;SDS011;14881;48.092;11.574;2023-04-20T12:20:36;11.95;;;9.50;;
27428;SDS011;14881;48.092;11.574;2023-04-20T12:23:03;10.98;;;9.50;;
27428;SDS011;14881;48.092;11.574;2023-04-20T12:25:31;10.52;;;9.45;;
27428;SDS011;14881;48.092;11.574;2023-04-20T12:27:59;10.98;;;9.15;;
27428;SDS011;14881;48.092;11.574;2023-04-20T12:30:31;11.15;;;10.05;;
27428;SDS011;14881;48.092;11.574;2023-04-20T12:33:01;10.18;;;9.07;;
27428;SDS011;14881;48.092;11.574;2023-04-20T12:35:30;11.65;;;9.07;;
27428;SDS011;14881;48.092;11.574;2023-04-20T12:37:58;10.93;;;9.82;;
27428;SDS011;14881;48.092;11.574;2023-04-20T12:40:26;10.43;;;8.57;;
27428;SDS011;14881;48.092;11.574;2023-04-20T12:42:54;10.88;;;9.05;;
27428;SDS011;14881;48.092;11.574;2023-04-20T12:45:21;10.68;;;9.15;;
27428;SDS011;14881;48.092;11.574;2023-04-20T12:47:49;10.13;;;9.10;;
27428;SDS011;14881;48.092;11.574;2023-04-20T12:50:20;14.27;;;11.05;;
27428;SDS011;14881;48.092;11.574;2023-04-20T12:52:49;13.40;;;11.98;;
27428;SDS011;14881;48.092;11.574;2023-04-20T12:55:18;12.45;;;11.15;;
27428;SDS011;14881;48.092;11.574;2023-04-20T12:57:45;10.70;;;9.60;;
27428;SDS011;14881;48.092;11.574;2023-04-20T13:00:13;10.90;;;9.80;;
27428;SDS011;14881;48.092;11.574;2023-04-20T13:02:42;11.18;;;9.63;;
27428;SDS011;14881;48.092;11.574;2023-04-20T13:05:10;11.05;;;9.85;;
27428;SDS011;14881;48.092;11.574;2023-04-20T13:07:38;12.38;;;10.45;;
27428;SDS011;14881;48.092;11.574;2023-04-20T13:10:07;12.07;;;10.80;;
27428;SDS011;14881;48.092;11.574;2023-04-20T13:12:35;13.13;;;10.73;;
27428;SDS011;14881;48.092;11.574;2023-04-20T13:15:05;13.52;;;9.90;;
27428;SDS011;14881;48.092;11.574;2023-04-20T13:17:39;11.75;;;10.43;;
27428;SDS011;14881;48.092;11.574;2023-04-20T13:20:07;14.23;;;10.93;;
27428;SDS011;14881;48.092;11.574;2023-04-20T13:22:36;11.80;;;10.20;;
27428;SDS011;14881;48.092;11.574;2023-04-20T13:25:23;11.60;;;10.30;;
27428;SDS011;14881;48.092;11.574;2023-04-20T13:27:52;12.18;;;10.65;;
27428;SDS011;14881;48.092;11.574;2023-04-20T13:30:20;13.90;;;10.88;;
27428;SDS011;14881;48.092;11.574;2023-04-20T13:32:50;12.43;;;10.45;;
27428;SDS011;14881;48.092;11.574;2023-04-20T13:35:17;12.07;;;10.35;;
27428;SDS011;14881;48.092;11.574;2023-04-20T13:37:45;12.55;;;9.70;;
27428;SDS011;14881;48.092;11.574;2023-04-20T13:40:13;11.95;;;10.60;;
27428;SDS011;14881;48.092;11.574;2023-04-20T13:42:42;12.13;;;10.40;;
27428;SDS011;14881;48.092;11.574;2023-04-20T13:45:10;12.98;;;10.38;;
27428;SDS011;14881;48.092;11.574;2023-04-20T13:47:38;13.18;;;10.40;;
27428;SDS011;14881;48.092;11.574;2023-04-20T13:50:07;11.38;;;9.90;;
27428;SDS011;14881;48.092;11.574;2023-04-20T13:52:35;13.52;;;10.82;;
27428;SDS011;14881;48.092;11.574;2023-04-20T13:55:03;12.65;;;10.90;;
27428;SDS011;14881;48.092;11.574;2023-04-20T13:57:31;13.07;;;10.93;;
27428;SDS011;14881;48.092;11.574;2023-04-20T14:00:00;11.93;;;10.73;;
27428;SDS011;14881;48.092;11.574;2023-04-20T14:02:28;12.45;;;11.10;;
27428;SDS011;14881;48.092;11.574;2023-04-20T14:04:56;13.13;;;11.73;;
27428;SDS011;14881;48.092;11.574;2023-04-20T14:07:24;12.98;;;10.77;;
27428;SDS011;14881;48.092;11.574;2023-04-20T14:09:52;14.32;;;10.88;;
27428;SDS011;14881;48.092;11.574;2023-04-20T14:12:21;15.35;;;12.45;;
27428;SDS011;14881;48.092;11.574;2023-04-20T14:14:49;14.57;;;12.25;;
27428;SDS011;14881;48.092;11.574;2023-04-20T14:17:18;14.02;;;12.55;;
27428;SDS011;14881;48.092;11.574;2023-04-20T14:19:46;14.80;;;12.07;;
27428;SDS011;14881;48.092;11.574;2023-04-20T14:22:15;15.95;;;13.02;;